Aberdeen, North Carolina
Current Conditions -  °F | °C
As of 10:55 PM on Tuesday 25 Nov 2014 (Local Time) from KSOP Reporting Station
Overcast Overcast  
Wind Chill: 48°   Ceiling: 2600
Heat Index: 48°   Visibility: 8mi
Dew Point: -4°   Wind: 0mph
Humidity: 11%   Direction: NA
Pressure: 30.06"   Gusts: NA
Location:  35.13°N, 79.43°W
Report Text: KSOP 260355Z AUTO 00000KT 8SM SCT013 SCT018 OVC026 09/M20 A3006 RMK AO1 P0006
Loading
Personal Weather Stations






























Interactive Weather Map New forecast layout! Learn more

10-Day Weather Forecast

Advertisements
Track Severe Weather on mobile